sensor_id;sensor_type;location;lat;lon;timestamp;pressure;altitude;pressure_sealevel;temperature;humidity
20228;BME280;12195;55.790;37.572;2024-03-25T00:01:03;97999.94;;;5.56;75.68
20228;BME280;12195;55.790;37.572;2024-03-25T00:03:35;98007.39;;;5.48;75.96
20228;BME280;12195;55.790;37.572;2024-03-25T00:06:08;98012.01;;;5.43;76.22
20228;BME280;12195;55.790;37.572;2024-03-25T00:08:40;98027.83;;;5.40;76.24
20228;BME280;12195;55.790;37.572;2024-03-25T00:11:13;98021.22;;;5.48;74.39
20228;BME280;12195;55.790;37.572;2024-03-25T00:13:46;98032.20;;;5.53;73.52
20228;BME280;12195;55.790;37.572;2024-03-25T00:16:19;98036.65;;;5.51;72.98
20228;BME280;12195;55.790;37.572;2024-03-25T00:18:52;98036.10;;;5.46;71.77
20228;BME280;12195;55.790;37.572;2024-03-25T00:21:25;98039.27;;;5.37;72.40
20228;BME280;12195;55.790;37.572;2024-03-25T00:23:57;98044.00;;;5.45;71.95
20228;BME280;12195;55.790;37.572;2024-03-25T00:26:30;98049.85;;;5.34;72.13
20228;BME280;12195;55.790;37.572;2024-03-25T00:29:03;98061.38;;;5.30;72.21
20228;BME280;12195;55.790;37.572;2024-03-25T00:31:36;98048.54;;;5.27;71.59
20228;BME280;12195;55.790;37.572;2024-03-25T00:34:08;98062.77;;;5.36;71.28
20228;BME280;12195;55.790;37.572;2024-03-25T00:36:40;98047.98;;;5.22;71.46
20228;BME280;12195;55.790;37.572;2024-03-25T00:39:13;98051.70;;;5.18;71.68
20228;BME280;12195;55.790;37.572;2024-03-25T00:41:45;98066.66;;;5.15;72.13
20228;BME280;12195;55.790;37.572;2024-03-25T00:44:18;98055.48;;;5.13;72.51
20228;BME280;12195;55.790;37.572;2024-03-25T00:46:50;98077.06;;;5.15;71.81
20228;BME280;12195;55.790;37.572;2024-03-25T00:49:22;98073.98;;;5.08;71.48
20228;BME280;12195;55.790;37.572;2024-03-25T00:51:55;98072.27;;;4.93;72.20
20228;BME280;12195;55.790;37.572;2024-03-25T00:54:28;98075.81;;;4.92;72.20
20228;BME280;12195;55.790;37.572;2024-03-25T00:57:00;98082.02;;;4.90;72.14
20228;BME280;12195;55.790;37.572;2024-03-25T00:59:33;98075.41;;;4.84;72.76
20228;BME280;12195;55.790;37.572;2024-03-25T01:02:06;98091.91;;;4.83;72.75
20228;BME280;12195;55.790;37.572;2024-03-25T01:04:39;98090.08;;;4.85;72.82
20228;BME280;12195;55.790;37.572;2024-03-25T01:07:11;98093.53;;;4.86;72.62
20228;BME280;12195;55.790;37.572;2024-03-25T01:09:44;98091.83;;;4.85;73.02
20228;BME280;12195;55.790;37.572;2024-03-25T01:12:16;98098.81;;;4.84;72.88
20228;BME280;12195;55.790;37.572;2024-03-25T01:14:48;98108.45;;;4.82;72.47
20228;BME280;12195;55.790;37.572;2024-03-25T01:17:20;98109.71;;;4.75;72.68
20228;BME280;12195;55.790;37.572;2024-03-25T01:19:53;98122.62;;;4.77;72.43
20228;BME280;12195;55.790;37.572;2024-03-25T01:22:25;98130.50;;;4.75;72.58
20228;BME280;12195;55.790;37.572;2024-03-25T01:24:57;98131.36;;;4.76;72.96
20228;BME280;12195;55.790;37.572;2024-03-25T01:27:30;98143.61;;;4.74;72.95
20228;BME280;12195;55.790;37.572;2024-03-25T01:30:03;98137.73;;;4.70;73.27
20228;BME280;12195;55.790;37.572;2024-03-25T01:32:36;98143.00;;;4.84;73.07
20228;BME280;12195;55.790;37.572;2024-03-25T01:35:08;98130.66;;;4.88;72.73
20228;BME280;12195;55.790;37.572;2024-03-25T01:37:41;98131.72;;;4.70;73.08
20228;BME280;12195;55.790;37.572;2024-03-25T01:40:13;98133.71;;;4.65;73.73
20228;BME280;12195;55.790;37.572;2024-03-25T01:42:57;98140.25;;;4.72;72.91
20228;BME280;12195;55.790;37.572;2024-03-25T01:45:32;98146.63;;;4.66;72.69
20228;BME280;12195;55.790;37.572;2024-03-25T01:48:08;98143.20;;;4.50;73.18
20228;BME280;12195;55.790;37.572;2024-03-25T01:50:45;98157.55;;;4.42;73.57
20228;BME280;12195;55.790;37.572;2024-03-25T01:53:17;98159.22;;;4.43;73.47
20228;BME280;12195;55.790;37.572;2024-03-25T01:55:50;98151.16;;;4.32;73.96
20228;BME280;12195;55.790;37.572;2024-03-25T01:58:26;98158.45;;;4.25;74.59
20228;BME280;12195;55.790;37.572;2024-03-25T02:00:59;98168.34;;;4.19;74.88
20228;BME280;12195;55.790;37.572;2024-03-25T02:03:35;98171.28;;;4.13;74.95
20228;BME280;12195;55.790;37.572;2024-03-25T02:06:15;98177.98;;;4.17;75.31
20228;BME280;12195;55.790;37.572;2024-03-25T02:08:49;98171.09;;;4.16;75.22
20228;BME280;12195;55.790;37.572;2024-03-25T02:11:23;98166.75;;;4.16;75.77
20228;BME280;12195;55.790;37.572;2024-03-25T02:13:55;98183.10;;;4.18;75.36
20228;BME280;12195;55.790;37.572;2024-03-25T02:16:28;98172.61;;;4.20;75.57
20228;BME280;12195;55.790;37.572;2024-03-25T02:19:01;98176.56;;;4.27;75.17
20228;BME280;12195;55.790;37.572;2024-03-25T02:21:34;98190.20;;;4.30;75.18
20228;BME280;12195;55.790;37.572;2024-03-25T02:24:09;98183.11;;;4.34;74.70
20228;BME280;12195;55.790;37.572;2024-03-25T02:26:41;98192.73;;;4.32;75.22
20228;BME280;12195;55.790;37.572;2024-03-25T02:29:14;98190.55;;;4.40;74.63
20228;BME280;12195;55.790;37.572;2024-03-25T02:31:46;98196.84;;;4.36;74.53
20228;BME280;12195;55.790;37.572;2024-03-25T02:34:19;98198.70;;;4.34;74.99
20228;BME280;12195;55.790;37.572;2024-03-25T02:36:52;98201.38;;;4.32;74.78
20228;BME280;12195;55.790;37.572;2024-03-25T02:39:25;98213.43;;;4.33;74.72
20228;BME280;12195;55.790;37.572;2024-03-25T02:41:57;98217.62;;;4.36;74.61
20228;BME280;12195;55.790;37.572;2024-03-25T02:44:30;98219.13;;;4.40;74.63
20228;BME280;12195;55.790;37.572;2024-03-25T02:47:03;98213.35;;;4.35;74.05
20228;BME280;12195;55.790;37.572;2024-03-25T02:49:37;98219.63;;;4.31;74.84
20228;BME280;12195;55.790;37.572;2024-03-25T02:52:10;98231.69;;;4.32;74.50
20228;BME280;12195;55.790;37.572;2024-03-25T02:54:42;98245.53;;;4.32;74.46
20228;BME280;12195;55.790;37.572;2024-03-25T02:57:14;98237.15;;;4.27;74.82
20228;BME280;12195;55.790;37.572;2024-03-25T02:59:47;98262.13;;;4.30;74.85
20228;BME280;12195;55.790;37.572;2024-03-25T03:02:19;98263.72;;;4.32;74.55
20228;BME280;12195;55.790;37.572;2024-03-25T03:04:54;98258.75;;;4.28;74.92
20228;BME280;12195;55.790;37.572;2024-03-25T03:07:27;98280.45;;;4.27;74.86
20228;BME280;12195;55.790;37.572;2024-03-25T03:09:59;98265.72;;;4.27;74.65
20228;BME280;12195;55.790;37.572;2024-03-25T03:12:32;98278.70;;;4.27;75.33
20228;BME280;12195;55.790;37.572;2024-03-25T03:15:05;98274.18;;;4.31;75.28
20228;BME280;12195;55.790;37.572;2024-03-25T03:17:38;98281.31;;;4.27;75.34
20228;BME280;12195;55.790;37.572;2024-03-25T03:20:11;98286.24;;;4.32;75.05
20228;BME280;12195;55.790;37.572;2024-03-25T03:22:45;98287.17;;;4.31;75.58
20228;BME280;12195;55.790;37.572;2024-03-25T03:25:17;98289.46;;;4.37;74.72
20228;BME280;12195;55.790;37.572;2024-03-25T03:27:50;98296.06;;;4.42;74.33
20228;BME280;12195;55.790;37.572;2024-03-25T03:30:22;98295.33;;;4.40;74.48
20228;BME280;12195;55.790;37.572;2024-03-25T03:32:56;98298.67;;;4.42;74.33
20228;BME280;12195;55.790;37.572;2024-03-25T03:35:29;98300.30;;;4.45;74.55
20228;BME280;12195;55.790;37.572;2024-03-25T03:38:01;98303.56;;;4.48;74.70
20228;BME280;12195;55.790;37.572;2024-03-25T03:40:35;98306.00;;;4.51;74.24
20228;BME280;12195;55.790;37.572;2024-03-25T03:43:07;98303.41;;;4.51;74.08
20228;BME280;12195;55.790;37.572;2024-03-25T03:45:40;98312.80;;;4.54;73.44
20228;BME280;12195;55.790;37.572;2024-03-25T03:48:13;98312.95;;;4.51;73.83
20228;BME280;12195;55.790;37.572;2024-03-25T03:50:46;98320.73;;;4.51;74.01
20228;BME280;12195;55.790;37.572;2024-03-25T03:53:19;98322.26;;;4.55;74.03
20228;BME280;12195;55.790;37.572;2024-03-25T03:55:57;98327.73;;;4.66;72.71
20228;BME280;12195;55.790;37.572;2024-03-25T03:58:31;98338.29;;;4.63;73.30
20228;BME280;12195;55.790;37.572;2024-03-25T04:01:04;98338.29;;;4.63;73.11
20228;BME280;12195;55.790;37.572;2024-03-25T04:03:36;98343.15;;;4.69;73.16
20228;BME280;12195;55.790;37.572;2024-03-25T04:06:13;98352.73;;;4.68;73.54
20228;BME280;12195;55.790;37.572;2024-03-25T04:08:46;98352.08;;;4.80;72.53
20228;BME280;12195;55.790;37.572;2024-03-25T04:11:18;98350.56;;;4.76;72.29
20228;BME280;12195;55.790;37.572;2024-03-25T04:13:51;98360.11;;;4.76;72.64
20228;BME280;12195;55.790;37.572;2024-03-25T04:16:24;98368.69;;;4.78;71.92
20228;BME280;12195;55.790;37.572;2024-03-25T04:18:57;98367.05;;;4.75;72.04
20228;BME280;12195;55.790;37.572;2024-03-25T04:21:30;98372.25;;;4.75;72.25
20228;BME280;12195;55.790;37.572;2024-03-25T04:24:03;98377.37;;;4.77;72.35
20228;BME280;12195;55.790;37.572;2024-03-25T04:26:36;98373.39;;;4.87;72.61
20228;BME280;12195;55.790;37.572;2024-03-25T04:29:09;98375.22;;;4.85;72.06
20228;BME280;12195;55.790;37.572;2024-03-25T04:31:43;98388.84;;;4.90;71.58
20228;BME280;12195;55.790;37.572;2024-03-25T04:34:16;98387.31;;;4.86;72.03
20228;BME280;12195;55.790;37.572;2024-03-25T04:36:48;98391.52;;;4.88;72.24
20228;BME280;12195;55.790;37.572;2024-03-25T04:39:22;98385.30;;;4.91;71.53
20228;BME280;12195;55.790;37.572;2024-03-25T04:41:55;98392.69;;;4.98;71.35
20228;BME280;12195;55.790;37.572;2024-03-25T04:44:28;98401.66;;;4.93;71.54
20228;BME280;12195;55.790;37.572;2024-03-25T04:47:01;98404.25;;;4.93;71.44
20228;BME280;12195;55.790;37.572;2024-03-25T04:49:36;98413.72;;;4.94;71.00
20228;BME280;12195;55.790;37.572;2024-03-25T04:52:10;98417.84;;;4.98;70.77
20228;BME280;12195;55.790;37.572;2024-03-25T04:54:45;98431.63;;;5.00;70.89
20228;BME280;12195;55.790;37.572;2024-03-25T04:57:19;98414.52;;;5.11;69.80
20228;BME280;12195;55.790;37.572;2024-03-25T04:59:52;98426.08;;;5.06;69.79
20228;BME280;12195;55.790;37.572;2024-03-25T05:02:25;98432.64;;;5.13;69.37
20228;BME280;12195;55.790;37.572;2024-03-25T05:04:58;98440.38;;;5.14;69.29
20228;BME280;12195;55.790;37.572;2024-03-25T05:07:34;98442.81;;;5.17;69.68
20228;BME280;12195;55.790;37.572;2024-03-25T05:10:07;98454.67;;;5.23;69.90
20228;BME280;12195;55.790;37.572;2024-03-25T05:12:40;98452.38;;;5.32;69.22
20228;BME280;12195;55.790;37.572;2024-03-25T05:15:15;98456.19;;;5.42;68.95
20228;BME280;12195;55.790;37.572;2024-03-25T05:17:49;98456.70;;;5.49;68.73
20228;BME280;12195;55.790;37.572;2024-03-25T05:20:22;98465.67;;;5.59;68.83
20228;BME280;12195;55.790;37.572;2024-03-25T05:22:55;98471.99;;;5.70;69.15
20228;BME280;12195;55.790;37.572;2024-03-25T05:25:28;98461.52;;;5.88;68.89
20228;BME280;12195;55.790;37.572;2024-03-25T05:28:02;98472.92;;;6.01;67.46
20228;BME280;12195;55.790;37.572;2024-03-25T05:30:35;98476.95;;;6.06;67.22
20228;BME280;12195;55.790;37.572;2024-03-25T05:33:08;98485.75;;;6.19;66.96
20228;BME280;12195;55.790;37.572;2024-03-25T05:35:43;98484.52;;;6.40;67.37
20228;BME280;12195;55.790;37.572;2024-03-25T05:38:16;98485.39;;;6.84;67.38
20228;BME280;12195;55.790;37.572;2024-03-25T05:40:49;98487.20;;;7.26;65.42
20228;BME280;12195;55.790;37.572;2024-03-25T05:43:23;98493.44;;;7.37;62.56
20228;BME280;12195;55.790;37.572;2024-03-25T05:45:57;98494.38;;;7.36;63.05
20228;BME280;12195;55.790;37.572;2024-03-25T05:48:29;98495.88;;;7.40;62.53
20228;BME280;12195;55.790;37.572;2024-03-25T05:51:04;98498.25;;;7.71;61.74
20228;BME280;12195;55.790;37.572;2024-03-25T05:53:41;98504.38;;;7.84;60.37
20228;BME280;12195;55.790;37.572;2024-03-25T05:56:15;98516.53;;;7.85;60.22
20228;BME280;12195;55.790;37.572;2024-03-25T05:58:51;98511.41;;;7.84;59.64
20228;BME280;12195;55.790;37.572;2024-03-25T06:01:25;98518.66;;;7.79;59.67
20228;BME280;12195;55.790;37.572;2024-03-25T06:03:59;98520.64;;;7.75;59.78
20228;BME280;12195;55.790;37.572;2024-03-25T06:06:34;98515.59;;;7.72;60.00
20228;BME280;12195;55.790;37.572;2024-03-25T06:09:08;98529.42;;;7.74;60.87
20228;BME280;12195;55.790;37.572;2024-03-25T06:11:40;98524.38;;;7.85;59.68
20228;BME280;12195;55.790;37.572;2024-03-25T06:14:14;98524.78;;;8.06;59.50
20228;BME280;12195;55.790;37.572;2024-03-25T06:16:47;98538.75;;;8.33;60.73
20228;BME280;12195;55.790;37.572;2024-03-25T06:19:25;98533.52;;;8.19;59.37
20228;BME280;12195;55.790;37.572;2024-03-25T06:21:58;98544.86;;;8.46;61.15
20228;BME280;12195;55.790;37.572;2024-03-25T06:24:32;98546.27;;;9.15;59.52
20228;BME280;12195;55.790;37.572;2024-03-25T06:27:06;98555.27;;;10.35;57.56
20228;BME280;12195;55.790;37.572;2024-03-25T06:29:42;98558.19;;;10.43;52.63
20228;BME280;12195;55.790;37.572;2024-03-25T06:32:16;98570.59;;;10.05;53.37
20228;BME280;12195;55.790;37.572;2024-03-25T06:35:06;98569.52;;;10.07;56.22
20228;BME280;12195;55.790;37.572;2024-03-25T06:37:39;98564.18;;;10.09;55.25
20228;BME280;12195;55.790;37.572;2024-03-25T06:40:14;98564.78;;;10.48;53.51
20228;BME280;12195;55.790;37.572;2024-03-25T06:42:47;98567.30;;;10.50;52.04
20228;BME280;12195;55.790;37.572;2024-03-25T06:45:23;98577.16;;;10.70;52.29
20228;BME280;12195;55.790;37.572;2024-03-25T06:47:56;98579.17;;;10.66;52.43
20228;BME280;12195;55.790;37.572;2024-03-25T06:50:29;98585.17;;;10.68;51.35
20228;BME280;12195;55.790;37.572;2024-03-25T06:53:02;98586.48;;;10.50;50.22
20228;BME280;12195;55.790;37.572;2024-03-25T06:55:36;98593.42;;;10.15;51.15
20228;BME280;12195;55.790;37.572;2024-03-25T06:58:10;98593.30;;;9.92;51.44
20228;BME280;12195;55.790;37.572;2024-03-25T07:00:43;98602.05;;;9.67;51.92
20228;BME280;12195;55.790;37.572;2024-03-25T07:03:17;98607.80;;;9.47;52.90
20228;BME280;12195;55.790;37.572;2024-03-25T07:05:52;98610.72;;;9.30;52.90
20228;BME280;12195;55.790;37.572;2024-03-25T07:08:27;98605.06;;;9.24;53.88
20228;BME280;12195;55.790;37.572;2024-03-25T07:11:01;98626.44;;;9.30;54.65
20228;BME280;12195;55.790;37.572;2024-03-25T07:13:37;98628.36;;;9.53;53.84
20228;BME280;12195;55.790;37.572;2024-03-25T07:16:12;98632.42;;;9.45;51.73
20228;BME280;12195;55.790;37.572;2024-03-25T07:18:44;98627.72;;;9.37;52.13
20228;BME280;12195;55.790;37.572;2024-03-25T07:21:17;98642.77;;;9.21;52.75
20228;BME280;12195;55.790;37.572;2024-03-25T07:23:50;98640.53;;;9.15;53.19
20228;BME280;12195;55.790;37.572;2024-03-25T07:26:23;98640.63;;;9.14;52.87
20228;BME280;12195;55.790;37.572;2024-03-25T07:28:56;98647.57;;;9.15;52.83
20228;BME280;12195;55.790;37.572;2024-03-25T07:31:29;98650.20;;;9.27;52.88
20228;BME280;12195;55.790;37.572;2024-03-25T07:34:04;98651.28;;;9.37;51.59
20228;BME280;12195;55.790;37.572;2024-03-25T07:36:38;98650.73;;;9.32;51.45
20228;BME280;12195;55.790;37.572;2024-03-25T07:39:14;98655.67;;;9.37;51.86
20228;BME280;12195;55.790;37.572;2024-03-25T07:41:48;98654.56;;;9.53;51.43
20228;BME280;12195;55.790;37.572;2024-03-25T07:44:23;98659.18;;;9.62;51.30
20228;BME280;12195;55.790;37.572;2024-03-25T07:46:57;98668.38;;;9.55;50.59
20228;BME280;12195;55.790;37.572;2024-03-25T07:49:32;98677.63;;;9.61;51.46
20228;BME280;12195;55.790;37.572;2024-03-25T07:52:06;98675.75;;;9.75;51.36
20228;BME280;12195;55.790;37.572;2024-03-25T07:54:39;98683.96;;;10.08;52.10
20228;BME280;12195;55.790;37.572;2024-03-25T07:57:17;98674.80;;;10.26;50.24
20228;BME280;12195;55.790;37.572;2024-03-25T07:59:52;98684.84;;;10.57;49.78
20228;BME280;12195;55.790;37.572;2024-03-25T08:02:26;98686.55;;;10.46;48.51
20228;BME280;12195;55.790;37.572;2024-03-25T08:05:00;98681.72;;;10.40;49.43
20228;BME280;12195;55.790;37.572;2024-03-25T08:07:36;98679.95;;;10.28;48.92
20228;BME280;12195;55.790;37.572;2024-03-25T08:10:09;98689.63;;;10.27;50.49
20228;BME280;12195;55.790;37.572;2024-03-25T08:12:42;98694.73;;;10.29;49.73
20228;BME280;12195;55.790;37.572;2024-03-25T08:15:22;98693.78;;;10.42;49.94
20228;BME280;12195;55.790;37.572;2024-03-25T08:18:00;98685.84;;;10.67;48.86
20228;BME280;12195;55.790;37.572;2024-03-25T08:20:42;98686.29;;;10.98;48.21
20228;BME280;12195;55.790;37.572;2024-03-25T08:23:16;98691.92;;;11.28;47.52
20228;BME280;12195;55.790;37.572;2024-03-25T08:25:49;98688.83;;;11.34;46.20
20228;BME280;12195;55.790;37.572;2024-03-25T08:28:23;98693.70;;;11.27;46.42
20228;BME280;12195;55.790;37.572;2024-03-25T08:30:58;98700.93;;;11.36;46.44
20228;BME280;12195;55.790;37.572;2024-03-25T08:33:32;98692.98;;;11.25;45.65
20228;BME280;12195;55.790;37.572;2024-03-25T08:36:07;98694.33;;;11.31;46.73
20228;BME280;12195;55.790;37.572;2024-03-25T08:38:42;98697.84;;;11.42;45.63
20228;BME280;12195;55.790;37.572;2024-03-25T08:41:16;98705.22;;;11.61;46.16
20228;BME280;12195;55.790;37.572;2024-03-25T08:43:51;98702.97;;;11.67;44.31
20228;BME280;12195;55.790;37.572;2024-03-25T08:46:25;98711.14;;;11.52;44.89
20228;BME280;12195;55.790;37.572;2024-03-25T08:49:00;98711.28;;;11.27;44.93
20228;BME280;12195;55.790;37.572;2024-03-25T08:51:35;98716.28;;;11.06;45.96
20228;BME280;12195;55.790;37.572;2024-03-25T08:54:08;98714.44;;;10.95;45.38
20228;BME280;12195;55.790;37.572;2024-03-25T08:56:41;98713.72;;;10.93;46.16
20228;BME280;12195;55.790;37.572;2024-03-25T08:59:15;98719.58;;;10.97;45.70
20228;BME280;12195;55.790;37.572;2024-03-25T09:01:48;98719.77;;;11.07;45.48
20228;BME280;12195;55.790;37.572;2024-03-25T09:04:22;98716.03;;;11.22;45.36
20228;BME280;12195;55.790;37.572;2024-03-25T09:06:57;98722.83;;;11.48;45.34
20228;BME280;12195;55.790;37.572;2024-03-25T09:09:33;98729.92;;;11.58;44.32
20228;BME280;12195;55.790;37.572;2024-03-25T09:12:26;98721.48;;;11.66;44.80
20228;BME280;12195;55.790;37.572;2024-03-25T09:15:00;98731.83;;;11.80;45.47
20228;BME280;12195;55.790;37.572;2024-03-25T09:17:33;98729.95;;;11.93;44.46
20228;BME280;12195;55.790;37.572;2024-03-25T09:20:07;98728.53;;;12.11;43.71
20228;BME280;12195;55.790;37.572;2024-03-25T09:22:46;98726.88;;;12.32;44.07
20228;BME280;12195;55.790;37.572;2024-03-25T09:25:20;98731.70;;;12.49;43.56
20228;BME280;12195;55.790;37.572;2024-03-25T09:27:53;98741.63;;;12.56;43.23
20228;BME280;12195;55.790;37.572;2024-03-25T09:30:26;98744.37;;;12.55;42.34
20228;BME280;12195;55.790;37.572;2024-03-25T09:32:59;98746.64;;;12.37;42.73
20228;BME280;12195;55.790;37.572;2024-03-25T09:35:31;98750.97;;;12.38;43.15
20228;BME280;12195;55.790;37.572;2024-03-25T09:38:04;98745.45;;;12.30;42.50
20228;BME280;12195;55.790;37.572;2024-03-25T09:40:41;98754.55;;;12.26;42.62
20228;BME280;12195;55.790;37.572;2024-03-25T09:43:36;98757.48;;;12.11;42.93
20228;BME280;12195;55.790;37.572;2024-03-25T09:46:00;98759.14;;;12.01;42.34
20228;BME280;12195;55.790;37.572;2024-03-25T09:48:32;98763.06;;;11.95;43.34
20228;BME280;12195;55.790;37.572;2024-03-25T09:51:05;98763.72;;;11.75;42.68
20228;BME280;12195;55.790;37.572;2024-03-25T09:53:39;98765.84;;;11.47;43.38
20228;BME280;12195;55.790;37.572;2024-03-25T09:56:13;98766.28;;;11.41;44.62
20228;BME280;12195;55.790;37.572;2024-03-25T09:58:47;98769.68;;;11.54;43.83
20228;BME280;12195;55.790;37.572;2024-03-25T10:01:20;98768.81;;;11.66;44.38
20228;BME280;12195;55.790;37.572;2024-03-25T10:03:55;98762.65;;;11.78;44.31
20228;BME280;12195;55.790;37.572;2024-03-25T10:06:28;98762.42;;;11.81;43.94
20228;BME280;12195;55.790;37.572;2024-03-25T10:09:06;98769.94;;;11.74;43.21
20228;BME280;12195;55.790;37.572;2024-03-25T10:11:39;98768.70;;;11.67;43.35
20228;BME280;12195;55.790;37.572;2024-03-25T10:14:12;98766.44;;;11.63;43.40
20228;BME280;12195;55.790;37.572;2024-03-25T10:16:45;98762.54;;;11.56;44.32
20228;BME280;12195;55.790;37.572;2024-03-25T10:19:19;98771.24;;;11.56;44.71
20228;BME280;12195;55.790;37.572;2024-03-25T10:22:01;98772.45;;;11.52;44.25
20228;BME280;12195;55.790;37.572;2024-03-25T10:24:39;98773.17;;;11.31;44.30
20228;BME280;12195;55.790;37.572;2024-03-25T10:27:21;98768.00;;;11.06;44.78
20228;BME280;12195;55.790;37.572;2024-03-25T10:29:55;98774.44;;;10.89;44.84
20228;BME280;12195;55.790;37.572;2024-03-25T10:32:32;98776.25;;;10.76;45.06
20228;BME280;12195;55.790;37.572;2024-03-25T10:35:07;98775.30;;;10.77;45.80
20228;BME280;12195;55.790;37.572;2024-03-25T10:37:40;98774.73;;;10.97;45.71
20228;BME280;12195;55.790;37.572;2024-03-25T10:40:13;98776.97;;;11.27;45.86
20228;BME280;12195;55.790;37.572;2024-03-25T10:42:47;98779.38;;;11.53;44.81
20228;BME280;12195;55.790;37.572;2024-03-25T10:45:21;98785.23;;;11.69;43.43
20228;BME280;12195;55.790;37.572;2024-03-25T10:48:08;98783.91;;;11.75;43.57
20228;BME280;12195;55.790;37.572;2024-03-25T10:50:35;98776.81;;;11.64;43.58
20228;BME280;12195;55.790;37.572;2024-03-25T10:53:10;98784.67;;;11.41;44.81
20228;BME280;12195;55.790;37.572;2024-03-25T10:55:50;98788.86;;;11.20;44.75
20228;BME280;12195;55.790;37.572;2024-03-25T10:58:22;98785.44;;;11.07;45.62
20228;BME280;12195;55.790;37.572;2024-03-25T11:00:55;98787.11;;;11.08;44.75
20228;BME280;12195;55.790;37.572;2024-03-25T11:03:29;98787.69;;;11.24;44.24
20228;BME280;12195;55.790;37.572;2024-03-25T11:06:02;98784.78;;;11.39;44.80
20228;BME280;12195;55.790;37.572;2024-03-25T11:08:35;98792.75;;;11.74;44.68
20228;BME280;12195;55.790;37.572;2024-03-25T11:11:09;98790.20;;;11.61;43.89
20228;BME280;12195;55.790;37.572;2024-03-25T11:13:43;98790.22;;;11.49;44.16
20228;BME280;12195;55.790;37.572;2024-03-25T11:16:30;98785.31;;;11.44;44.78
20228;BME280;12195;55.790;37.572;2024-03-25T11:19:10;98781.94;;;11.42;44.64
20228;BME280;12195;55.790;37.572;2024-03-25T11:21:44;98793.52;;;11.40;44.66
20228;BME280;12195;55.790;37.572;2024-03-25T11:24:28;98785.03;;;11.36;44.32
20228;BME280;12195;55.790;37.572;2024-03-25T11:27:01;98790.81;;;11.29;44.93
20228;BME280;12195;55.790;37.572;2024-03-25T11:29:35;98791.59;;;11.18;45.40
20228;BME280;12195;55.790;37.572;2024-03-25T11:32:10;98800.03;;;11.11;46.50
20228;BME280;12195;55.790;37.572;2024-03-25T11:34:51;98800.13;;;11.09;44.59
20228;BME280;12195;55.790;37.572;2024-03-25T11:37:24;98797.64;;;11.31;44.65
20228;BME280;12195;55.790;37.572;2024-03-25T11:40:04;98806.80;;;11.62;44.51
20228;BME280;12195;55.790;37.572;2024-03-25T11:42:39;98798.39;;;11.80;43.63
20228;BME280;12195;55.790;37.572;2024-03-25T11:45:17;98800.23;;;11.91;43.65
20228;BME280;12195;55.790;37.572;2024-03-25T11:47:51;98797.37;;;11.94;43.57
20228;BME280;12195;55.790;37.572;2024-03-25T11:50:23;98800.75;;;11.96;43.47
20228;BME280;12195;55.790;37.572;2024-03-25T11:52:56;98799.57;;;12.00;42.88
20228;BME280;12195;55.790;37.572;2024-03-25T11:55:28;98794.16;;;12.01;42.60
20228;BME280;12195;55.790;37.572;2024-03-25T11:58:01;98803.91;;;12.12;42.96
20228;BME280;12195;55.790;37.572;2024-03-25T12:00:34;98811.06;;;12.10;42.86
20228;BME280;12195;55.790;37.572;2024-03-25T12:03:07;98807.20;;;12.03;43.69
20228;BME280;12195;55.790;37.572;2024-03-25T12:05:41;98805.74;;;11.88;43.29
20228;BME280;12195;55.790;37.572;2024-03-25T12:08:14;98809.81;;;11.68;43.73
20228;BME280;12195;55.790;37.572;2024-03-25T12:10:47;98808.83;;;11.46;44.46
20228;BME280;12195;55.790;37.572;2024-03-25T12:13:39;98812.80;;;11.28;45.30
20228;BME280;12195;55.790;37.572;2024-03-25T12:16:14;98816.00;;;11.08;45.20
20228;BME280;12195;55.790;37.572;2024-03-25T12:18:46;98814.04;;;10.86;45.05
20228;BME280;12195;55.790;37.572;2024-03-25T12:21:20;98819.52;;;10.70;45.71
20228;BME280;12195;55.790;37.572;2024-03-25T12:23:53;98812.80;;;10.66;46.29
20228;BME280;12195;55.790;37.572;2024-03-25T12:26:26;98820.27;;;10.72;45.65
20228;BME280;12195;55.790;37.572;2024-03-25T12:28:59;98825.94;;;10.79;45.97
20228;BME280;12195;55.790;37.572;2024-03-25T12:31:32;98830.95;;;10.82;45.08
20228;BME280;12195;55.790;37.572;2024-03-25T12:34:09;98827.30;;;10.84;45.52
20228;BME280;12195;55.790;37.572;2024-03-25T12:36:42;98825.91;;;10.91;45.37
20228;BME280;12195;55.790;37.572;2024-03-25T12:39:18;98821.58;;;11.39;45.65
20228;BME280;12195;55.790;37.572;2024-03-25T12:41:51;98821.45;;;12.46;44.42
20228;BME280;12195;55.790;37.572;2024-03-25T12:44:24;98818.44;;;14.44;39.52
20228;BME280;12195;55.790;37.572;2024-03-25T12:46:57;98814.11;;;16.95;34.90
20228;BME280;12195;55.790;37.572;2024-03-25T12:49:31;98816.67;;;19.32;30.80
20228;BME280;12195;55.790;37.572;2024-03-25T12:52:06;98806.59;;;21.28;27.69
20228;BME280;12195;55.790;37.572;2024-03-25T12:54:40;98797.63;;;22.72;25.77
20228;BME280;12195;55.790;37.572;2024-03-25T12:57:13;98795.61;;;23.61;24.27
20228;BME280;12195;55.790;37.572;2024-03-25T12:59:46;98795.16;;;24.56;23.13
20228;BME280;12195;55.790;37.572;2024-03-25T13:02:19;98795.38;;;25.44;22.03
20228;BME280;12195;55.790;37.572;2024-03-25T13:04:52;98793.80;;;26.22;20.79
20228;BME280;12195;55.790;37.572;2024-03-25T13:07:26;98790.31;;;26.80;20.24
20228;BME280;12195;55.790;37.572;2024-03-25T13:10:01;98773.35;;;27.50;19.46
20228;BME280;12195;55.790;37.572;2024-03-25T13:12:34;98780.66;;;28.24;18.28
20228;BME280;12195;55.790;37.572;2024-03-25T13:15:08;98788.69;;;29.83;23.43
20228;BME280;12195;55.790;37.572;2024-03-25T13:17:41;98779.06;;;29.51;17.00
20228;BME280;12195;55.790;37.572;2024-03-25T13:20:13;98783.89;;;30.15;16.46
20228;BME280;12195;55.790;37.572;2024-03-25T13:22:48;98781.88;;;30.63;16.21
20228;BME280;12195;55.790;37.572;2024-03-25T13:25:21;98784.41;;;30.99;15.74
20228;BME280;12195;55.790;37.572;2024-03-25T13:27:54;98783.47;;;31.28;15.25
20228;BME280;12195;55.790;37.572;2024-03-25T13:30:26;98775.17;;;31.46;15.16